logo
Rechercher aéroport 
image banner adimage banner adimage banner ad
image banner ad

FAEAGL - Eagle Lodge

Situé à , South Africa

ICAO - , IATA -

Données fournies par Airmate  

Information générale

Coordonnées: S24°8'4" E28°23'35"
Élévation : 4803 feet MSL.
 
Voir autres Aéroports à Limpopo

Données opérationnelles

Special qualification required
Heure actuelle UTC:
Heure actuelle locale:
Météo à : - ( 0 km )
METAR: KRSV 172124Z AUTO 21012G18KT 10SM CLR 33/21 A2998 RMK AO2 TSNO
Voir NOTAMs / SUP AIP / TFR affectant cet aéroport [VIEW]
Fréquences de communication: [VIEW]

Pistes:

Identifiant RWYQFULongueur (ft)Largeur (ft)SurfaceLDA (ft)
0423°328149GRASS
22203°328149GRASS

Coordonnées de l'aéroport

Adresse: South Africa

Vue satellite de FAEAGL